sensor_id;sensor_type;location;lat;lon;timestamp;P1;durP1;ratioP1;P2;durP2;ratioP2
60098;SDS011;62818;49.394;8.686;2023-08-24T00:00:22;5.30;;;2.13;;
60098;SDS011;62818;49.394;8.686;2023-08-24T00:01:23;3.97;;;1.90;;
60098;SDS011;62818;49.394;8.686;2023-08-24T00:02:23;4.17;;;1.77;;
60098;SDS011;62818;49.394;8.686;2023-08-24T00:03:23;4.70;;;1.73;;
60098;SDS011;62818;49.394;8.686;2023-08-24T00:04:24;6.73;;;2.27;;
60098;SDS011;62818;49.394;8.686;2023-08-24T00:05:24;4.73;;;2.23;;
60098;SDS011;62818;49.394;8.686;2023-08-24T00:06:25;5.43;;;1.87;;
60098;SDS011;62818;49.394;8.686;2023-08-24T00:07:25;3.97;;;1.80;;
60098;SDS011;62818;49.394;8.686;2023-08-24T00:08:26;7.95;;;2.15;;
60098;SDS011;62818;49.394;8.686;2023-08-24T00:09:27;4.67;;;2.00;;
60098;SDS011;62818;49.394;8.686;2023-08-24T00:10:27;6.13;;;2.40;;
60098;SDS011;62818;49.394;8.686;2023-08-24T00:11:28;6.67;;;2.30;;
60098;SDS011;62818;49.394;8.686;2023-08-24T00:12:28;7.20;;;2.30;;
60098;SDS011;62818;49.394;8.686;2023-08-24T00:13:29;6.20;;;2.00;;
60098;SDS011;62818;49.394;8.686;2023-08-24T00:14:30;8.07;;;2.53;;
60098;SDS011;62818;49.394;8.686;2023-08-24T00:15:30;3.97;;;2.20;;
60098;SDS011;62818;49.394;8.686;2023-08-24T00:16:31;6.57;;;2.23;;
60098;SDS011;62818;49.394;8.686;2023-08-24T00:17:31;6.70;;;2.10;;
60098;SDS011;62818;49.394;8.686;2023-08-24T00:18:32;6.40;;;2.53;;
60098;SDS011;62818;49.394;8.686;2023-08-24T00:19:32;4.00;;;2.03;;
60098;SDS011;62818;49.394;8.686;2023-08-24T00:20:33;8.33;;;2.33;;
60098;SDS011;62818;49.394;8.686;2023-08-24T00:21:34;4.07;;;2.25;;
60098;SDS011;62818;49.394;8.686;2023-08-24T00:22:34;4.93;;;2.07;;
60098;SDS011;62818;49.394;8.686;2023-08-24T00:23:35;9.20;;;2.30;;
60098;SDS011;62818;49.394;8.686;2023-08-24T00:24:35;3.63;;;1.97;;
60098;SDS011;62818;49.394;8.686;2023-08-24T00:25:36;5.67;;;2.10;;
60098;SDS011;62818;49.394;8.686;2023-08-24T00:26:36;4.73;;;2.23;;
60098;SDS011;62818;49.394;8.686;2023-08-24T00:27:37;6.57;;;2.10;;
60098;SDS011;62818;49.394;8.686;2023-08-24T00:28:38;5.15;;;2.17;;
60098;SDS011;62818;49.394;8.686;2023-08-24T00:29:38;5.93;;;2.10;;
60098;SDS011;62818;49.394;8.686;2023-08-24T00:30:39;5.73;;;2.57;;
60098;SDS011;62818;49.394;8.686;2023-08-24T00:31:39;9.20;;;2.10;;
60098;SDS011;62818;49.394;8.686;2023-08-24T00:32:40;7.13;;;2.50;;
60098;SDS011;62818;49.394;8.686;2023-08-24T00:33:40;3.90;;;2.10;;
60098;SDS011;62818;49.394;8.686;2023-08-24T00:34:41;5.23;;;2.23;;
60098;SDS011;62818;49.394;8.686;2023-08-24T00:35:41;5.80;;;2.00;;
60098;SDS011;62818;49.394;8.686;2023-08-24T00:36:41;6.33;;;2.13;;
60098;SDS011;62818;49.394;8.686;2023-08-24T00:37:42;10.40;;;2.60;;
60098;SDS011;62818;49.394;8.686;2023-08-24T00:38:42;6.60;;;2.30;;
60098;SDS011;62818;49.394;8.686;2023-08-24T00:39:43;4.77;;;2.17;;
60098;SDS011;62818;49.394;8.686;2023-08-24T00:40:44;4.47;;;1.90;;
60098;SDS011;62818;49.394;8.686;2023-08-24T00:41:44;4.77;;;1.90;;
60098;SDS011;62818;49.394;8.686;2023-08-24T00:42:45;4.10;;;2.13;;
60098;SDS011;62818;49.394;8.686;2023-08-24T00:43:46;8.15;;;2.30;;
60098;SDS011;62818;49.394;8.686;2023-08-24T00:44:46;11.47;;;2.47;;
60098;SDS011;62818;49.394;8.686;2023-08-24T00:45:47;7.57;;;2.93;;
60098;SDS011;62818;49.394;8.686;2023-08-24T00:46:47;4.97;;;1.97;;
60098;SDS011;62818;49.394;8.686;2023-08-24T00:47:48;3.88;;;2.22;;
60098;SDS011;62818;49.394;8.686;2023-08-24T00:48:49;3.42;;;2.10;;
60098;SDS011;62818;49.394;8.686;2023-08-24T00:49:51;5.47;;;1.98;;
60098;SDS011;62818;49.394;8.686;2023-08-24T00:50:52;2.93;;;1.83;;
60098;SDS011;62818;49.394;8.686;2023-08-24T00:51:53;4.93;;;2.33;;
60098;SDS011;62818;49.394;8.686;2023-08-24T00:52:53;7.63;;;2.20;;
60098;SDS011;62818;49.394;8.686;2023-08-24T00:53:54;6.45;;;2.25;;
60098;SDS011;62818;49.394;8.686;2023-08-24T00:54:58;11.23;;;2.10;;
60098;SDS011;62818;49.394;8.686;2023-08-24T00:55:59;5.65;;;2.28;;
60098;SDS011;62818;49.394;8.686;2023-08-24T00:57:00;4.25;;;1.95;;
60098;SDS011;62818;49.394;8.686;2023-08-24T00:58:01;4.07;;;2.07;;
60098;SDS011;62818;49.394;8.686;2023-08-24T00:59:03;7.90;;;2.08;;
60098;SDS011;62818;49.394;8.686;2023-08-24T01:00:04;7.90;;;2.22;;
60098;SDS011;62818;49.394;8.686;2023-08-24T01:01:10;4.85;;;2.25;;
60098;SDS011;62818;49.394;8.686;2023-08-24T01:02:10;4.20;;;1.97;;
60098;SDS011;62818;49.394;8.686;2023-08-24T01:03:11;3.35;;;2.00;;
60098;SDS011;62818;49.394;8.686;2023-08-24T01:04:12;5.33;;;2.17;;
60098;SDS011;62818;49.394;8.686;2023-08-24T01:05:13;6.65;;;2.10;;
60098;SDS011;62818;49.394;8.686;2023-08-24T01:06:14;5.27;;;2.10;;
60098;SDS011;62818;49.394;8.686;2023-08-24T01:07:15;7.10;;;2.50;;
60098;SDS011;62818;49.394;8.686;2023-08-24T01:08:17;10.50;;;2.65;;
60098;SDS011;62818;49.394;8.686;2023-08-24T01:09:19;7.50;;;2.40;;
60098;SDS011;62818;49.394;8.686;2023-08-24T01:10:22;5.78;;;2.50;;
60098;SDS011;62818;49.394;8.686;2023-08-24T01:16:36;4.88;;;2.25;;
60098;SDS011;62818;49.394;8.686;2023-08-24T01:17:42;5.30;;;2.33;;
60098;SDS011;62818;49.394;8.686;2023-08-24T01:18:43;4.82;;;2.25;;
60098;SDS011;62818;49.394;8.686;2023-08-24T01:19:45;6.05;;;2.10;;
60098;SDS011;62818;49.394;8.686;2023-08-24T01:20:46;3.83;;;2.13;;
60098;SDS011;62818;49.394;8.686;2023-08-24T01:21:49;5.88;;;2.05;;
60098;SDS011;62818;49.394;8.686;2023-08-24T01:24:30;5.40;;;1.83;;
60098;SDS011;62818;49.394;8.686;2023-08-24T01:25:40;3.20;;;2.00;;
60098;SDS011;62818;49.394;8.686;2023-08-24T01:26:51;4.95;;;2.03;;
60098;SDS011;62818;49.394;8.686;2023-08-24T01:27:55;3.60;;;2.10;;
60098;SDS011;62818;49.394;8.686;2023-08-24T01:28:56;5.30;;;2.08;;
60098;SDS011;62818;49.394;8.686;2023-08-24T01:29:56;6.07;;;2.30;;
60098;SDS011;62818;49.394;8.686;2023-08-24T01:30:59;3.70;;;1.90;;
60098;SDS011;62818;49.394;8.686;2023-08-24T01:32:00;5.13;;;2.10;;
60098;SDS011;62818;49.394;8.686;2023-08-24T01:33:03;4.23;;;2.23;;
60098;SDS011;62818;49.394;8.686;2023-08-24T01:34:04;3.75;;;2.13;;
60098;SDS011;62818;49.394;8.686;2023-08-24T01:35:06;4.47;;;1.97;;
60098;SDS011;62818;49.394;8.686;2023-08-24T01:36:09;7.03;;;2.10;;
60098;SDS011;62818;49.394;8.686;2023-08-24T01:37:12;5.70;;;2.10;;
60098;SDS011;62818;49.394;8.686;2023-08-24T01:38:13;12.88;;;2.33;;
60098;SDS011;62818;49.394;8.686;2023-08-24T01:39:19;5.82;;;2.30;;
60098;SDS011;62818;49.394;8.686;2023-08-24T01:42:23;5.07;;;2.13;;
60098;SDS011;62818;49.394;8.686;2023-08-24T01:43:31;5.68;;;2.42;;
60098;SDS011;62818;49.394;8.686;2023-08-24T01:44:36;4.05;;;2.40;;
60098;SDS011;62818;49.394;8.686;2023-08-24T01:45:41;3.97;;;2.20;;
60098;SDS011;62818;49.394;8.686;2023-08-24T01:46:44;4.60;;;2.13;;
60098;SDS011;62818;49.394;8.686;2023-08-24T01:47:48;5.53;;;1.90;;
60098;SDS011;62818;49.394;8.686;2023-08-24T01:48:49;3.28;;;1.70;;
60098;SDS011;62818;49.394;8.686;2023-08-24T01:49:54;2.95;;;2.30;;
60098;SDS011;62818;49.394;8.686;2023-08-24T01:51:58;8.70;;;2.30;;
60098;SDS011;62818;49.394;8.686;2023-08-24T01:53:00;4.55;;;2.50;;
60098;SDS011;62818;49.394;8.686;2023-08-24T01:54:01;6.03;;;2.17;;
60098;SDS011;62818;49.394;8.686;2023-08-24T01:55:02;5.13;;;2.38;;
60098;SDS011;62818;49.394;8.686;2023-08-24T01:56:12;7.95;;;2.30;;
60098;SDS011;62818;49.394;8.686;2023-08-24T01:57:15;2.88;;;2.17;;
60098;SDS011;62818;49.394;8.686;2023-08-24T01:58:16;4.17;;;2.03;;
60098;SDS011;62818;49.394;8.686;2023-08-24T01:59:17;4.60;;;2.17;;
60098;SDS011;62818;49.394;8.686;2023-08-24T02:00:17;5.27;;;2.53;;
60098;SDS011;62818;49.394;8.686;2023-08-24T02:01:18;5.97;;;2.03;;
60098;SDS011;62818;49.394;8.686;2023-08-24T02:02:18;6.73;;;2.70;;
60098;SDS011;62818;49.394;8.686;2023-08-24T02:03:19;3.80;;;2.27;;
60098;SDS011;62818;49.394;8.686;2023-08-24T02:04:19;7.30;;;2.30;;
60098;SDS011;62818;49.394;8.686;2023-08-24T02:05:20;2.80;;;2.47;;
60098;SDS011;62818;49.394;8.686;2023-08-24T02:06:20;9.00;;;2.53;;
60098;SDS011;62818;49.394;8.686;2023-08-24T02:07:21;4.00;;;2.22;;
60098;SDS011;62818;49.394;8.686;2023-08-24T02:08:22;5.73;;;2.50;;
60098;SDS011;62818;49.394;8.686;2023-08-24T02:09:22;6.10;;;2.42;;
60098;SDS011;62818;49.394;8.686;2023-08-24T02:10:23;6.73;;;2.30;;
60098;SDS011;62818;49.394;8.686;2023-08-24T02:11:23;3.90;;;2.40;;
60098;SDS011;62818;49.394;8.686;2023-08-24T02:12:24;3.87;;;2.17;;
60098;SDS011;62818;49.394;8.686;2023-08-24T02:13:24;5.40;;;2.50;;
60098;SDS011;62818;49.394;8.686;2023-08-24T02:14:25;3.83;;;2.67;;
60098;SDS011;62818;49.394;8.686;2023-08-24T02:15:25;3.43;;;2.20;;
60098;SDS011;62818;49.394;8.686;2023-08-24T02:16:26;4.00;;;2.60;;
60098;SDS011;62818;49.394;8.686;2023-08-24T02:17:26;2.97;;;2.43;;
60098;SDS011;62818;49.394;8.686;2023-08-24T02:18:27;5.13;;;2.20;;
60098;SDS011;62818;49.394;8.686;2023-08-24T02:19:27;3.87;;;2.60;;
60098;SDS011;62818;49.394;8.686;2023-08-24T02:20:28;4.27;;;2.20;;
60098;SDS011;62818;49.394;8.686;2023-08-24T02:21:28;7.70;;;2.40;;
60098;SDS011;62818;49.394;8.686;2023-08-24T02:22:29;4.93;;;2.30;;
60098;SDS011;62818;49.394;8.686;2023-08-24T02:24:31;5.10;;;2.47;;
60098;SDS011;62818;49.394;8.686;2023-08-24T02:25:31;6.73;;;2.53;;
60098;SDS011;62818;49.394;8.686;2023-08-24T02:26:33;8.98;;;2.30;;
60098;SDS011;62818;49.394;8.686;2023-08-24T02:27:33;5.13;;;2.60;;
60098;SDS011;62818;49.394;8.686;2023-08-24T02:28:35;5.17;;;2.77;;
60098;SDS011;62818;49.394;8.686;2023-08-24T02:29:37;5.18;;;2.40;;
60098;SDS011;62818;49.394;8.686;2023-08-24T02:30:39;5.93;;;2.42;;
60098;SDS011;62818;49.394;8.686;2023-08-24T02:31:39;12.47;;;2.77;;
60098;SDS011;62818;49.394;8.686;2023-08-24T02:32:40;3.58;;;2.22;;
60098;SDS011;62818;49.394;8.686;2023-08-24T02:33:41;5.80;;;2.17;;
60098;SDS011;62818;49.394;8.686;2023-08-24T02:34:42;4.65;;;2.25;;
60098;SDS011;62818;49.394;8.686;2023-08-24T02:35:43;8.73;;;2.42;;
60098;SDS011;62818;49.394;8.686;2023-08-24T02:37:45;5.22;;;2.13;;
60098;SDS011;62818;49.394;8.686;2023-08-24T02:38:46;4.67;;;2.40;;
60098;SDS011;62818;49.394;8.686;2023-08-24T02:39:47;6.53;;;2.63;;
60098;SDS011;62818;49.394;8.686;2023-08-24T02:40:47;10.00;;;2.13;;
60098;SDS011;62818;49.394;8.686;2023-08-24T02:41:48;4.63;;;2.17;;
60098;SDS011;62818;49.394;8.686;2023-08-24T02:42:49;6.63;;;2.03;;
60098;SDS011;62818;49.394;8.686;2023-08-24T02:43:50;3.70;;;2.13;;
60098;SDS011;62818;49.394;8.686;2023-08-24T02:44:50;4.87;;;2.33;;
60098;SDS011;62818;49.394;8.686;2023-08-24T02:45:50;7.33;;;2.20;;
60098;SDS011;62818;49.394;8.686;2023-08-24T02:46:53;5.20;;;2.40;;
60098;SDS011;62818;49.394;8.686;2023-08-24T02:47:54;3.80;;;2.60;;
60098;SDS011;62818;49.394;8.686;2023-08-24T02:48:55;5.17;;;2.83;;
60098;SDS011;62818;49.394;8.686;2023-08-24T02:49:55;7.10;;;2.50;;
60098;SDS011;62818;49.394;8.686;2023-08-24T02:50:59;4.67;;;2.70;;
60098;SDS011;62818;49.394;8.686;2023-08-24T02:52:03;4.35;;;2.30;;
60098;SDS011;62818;49.394;8.686;2023-08-24T02:53:03;3.90;;;2.20;;
60098;SDS011;62818;49.394;8.686;2023-08-24T02:54:04;5.63;;;2.43;;
60098;SDS011;62818;49.394;8.686;2023-08-24T02:55:05;7.00;;;2.30;;
60098;SDS011;62818;49.394;8.686;2023-08-24T02:56:06;4.60;;;2.22;;
60098;SDS011;62818;49.394;8.686;2023-08-24T02:57:06;5.67;;;2.10;;
60098;SDS011;62818;49.394;8.686;2023-08-24T02:58:07;4.10;;;2.30;;
60098;SDS011;62818;49.394;8.686;2023-08-24T02:59:07;6.03;;;2.67;;
60098;SDS011;62818;49.394;8.686;2023-08-24T03:00:08;6.13;;;2.00;;
60098;SDS011;62818;49.394;8.686;2023-08-24T03:02:10;3.22;;;2.40;;
60098;SDS011;62818;49.394;8.686;2023-08-24T03:03:10;6.10;;;2.40;;
60098;SDS011;62818;49.394;8.686;2023-08-24T03:04:11;7.33;;;2.53;;
60098;SDS011;62818;49.394;8.686;2023-08-24T03:05:11;3.50;;;2.20;;
60098;SDS011;62818;49.394;8.686;2023-08-24T03:06:12;2.95;;;2.55;;
60098;SDS011;62818;49.394;8.686;2023-08-24T03:07:12;5.63;;;2.30;;
60098;SDS011;62818;49.394;8.686;2023-08-24T03:08:13;5.83;;;2.17;;
60098;SDS011;62818;49.394;8.686;2023-08-24T03:09:13;5.83;;;2.20;;
60098;SDS011;62818;49.394;8.686;2023-08-24T03:10:14;3.83;;;2.20;;
60098;SDS011;62818;49.394;8.686;2023-08-24T03:11:14;4.77;;;2.10;;
60098;SDS011;62818;49.394;8.686;2023-08-24T03:12:15;7.10;;;2.67;;
60098;SDS011;62818;49.394;8.686;2023-08-24T03:13:16;4.00;;;2.50;;
60098;SDS011;62818;49.394;8.686;2023-08-24T03:14:17;4.97;;;2.33;;
60098;SDS011;62818;49.394;8.686;2023-08-24T03:15:18;4.35;;;2.40;;
60098;SDS011;62818;49.394;8.686;2023-08-24T03:16:19;6.50;;;2.40;;
60098;SDS011;62818;49.394;8.686;2023-08-24T03:17:20;6.18;;;2.50;;
60098;SDS011;62818;49.394;8.686;2023-08-24T03:18:21;6.05;;;2.15;;
60098;SDS011;62818;49.394;8.686;2023-08-24T03:19:22;3.10;;;2.00;;
60098;SDS011;62818;49.394;8.686;2023-08-24T03:20:22;5.03;;;2.40;;
60098;SDS011;62818;49.394;8.686;2023-08-24T03:21:23;3.93;;;2.40;;
60098;SDS011;62818;49.394;8.686;2023-08-24T03:22:24;4.05;;;2.50;;
60098;SDS011;62818;49.394;8.686;2023-08-24T03:23:24;6.60;;;2.80;;
60098;SDS011;62818;49.394;8.686;2023-08-24T03:24:25;3.17;;;2.23;;
60098;SDS011;62818;49.394;8.686;2023-08-24T03:25:25;3.30;;;2.70;;
60098;SDS011;62818;49.394;8.686;2023-08-24T03:26:26;3.75;;;2.75;;
60098;SDS011;62818;49.394;8.686;2023-08-24T03:27:26;5.43;;;2.30;;
60098;SDS011;62818;49.394;8.686;2023-08-24T03:28:27;5.27;;;2.60;;
60098;SDS011;62818;49.394;8.686;2023-08-24T03:29:27;5.07;;;2.30;;
60098;SDS011;62818;49.394;8.686;2023-08-24T03:30:28;4.27;;;2.37;;
60098;SDS011;62818;49.394;8.686;2023-08-24T03:31:28;5.45;;;2.28;;
60098;SDS011;62818;49.394;8.686;2023-08-24T03:32:29;4.07;;;2.23;;
60098;SDS011;62818;49.394;8.686;2023-08-24T03:33:29;4.27;;;2.40;;
60098;SDS011;62818;49.394;8.686;2023-08-24T03:34:30;3.47;;;2.17;;
60098;SDS011;62818;49.394;8.686;2023-08-24T03:35:31;5.53;;;2.63;;
60098;SDS011;62818;49.394;8.686;2023-08-24T03:36:33;4.38;;;2.25;;
60098;SDS011;62818;49.394;8.686;2023-08-24T03:37:33;3.90;;;2.00;;
60098;SDS011;62818;49.394;8.686;2023-08-24T03:38:34;3.73;;;2.20;;
60098;SDS011;62818;49.394;8.686;2023-08-24T03:39:36;6.10;;;1.93;;
60098;SDS011;62818;49.394;8.686;2023-08-24T03:40:39;3.28;;;2.20;;
60098;SDS011;62818;49.394;8.686;2023-08-24T03:41:39;3.33;;;2.37;;
60098;SDS011;62818;49.394;8.686;2023-08-24T03:42:40;4.63;;;3.00;;
60098;SDS011;62818;49.394;8.686;2023-08-24T03:43:41;6.57;;;2.70;;
60098;SDS011;62818;49.394;8.686;2023-08-24T03:44:41;4.43;;;2.47;;
60098;SDS011;62818;49.394;8.686;2023-08-24T03:45:42;3.47;;;2.53;;
60098;SDS011;62818;49.394;8.686;2023-08-24T03:46:43;6.43;;;2.40;;
60098;SDS011;62818;49.394;8.686;2023-08-24T03:47:43;4.87;;;2.27;;
60098;SDS011;62818;49.394;8.686;2023-08-24T03:48:44;4.50;;;2.30;;
60098;SDS011;62818;49.394;8.686;2023-08-24T03:49:44;8.13;;;2.67;;
60098;SDS011;62818;49.394;8.686;2023-08-24T03:50:45;4.90;;;3.10;;
60098;SDS011;62818;49.394;8.686;2023-08-24T03:51:45;2.97;;;2.27;;
60098;SDS011;62818;49.394;8.686;2023-08-24T03:52:46;3.20;;;2.20;;
60098;SDS011;62818;49.394;8.686;2023-08-24T03:53:46;4.03;;;2.67;;
60098;SDS011;62818;49.394;8.686;2023-08-24T03:54:47;3.63;;;2.07;;
60098;SDS011;62818;49.394;8.686;2023-08-24T03:55:47;2.87;;;1.97;;
60098;SDS011;62818;49.394;8.686;2023-08-24T03:56:52;4.35;;;2.17;;
60098;SDS011;62818;49.394;8.686;2023-08-24T03:57:52;9.10;;;2.20;;
60098;SDS011;62818;49.394;8.686;2023-08-24T03:58:54;5.93;;;2.10;;
60098;SDS011;62818;49.394;8.686;2023-08-24T03:59:54;4.97;;;1.57;;
60098;SDS011;62818;49.394;8.686;2023-08-24T04:00:55;2.53;;;1.60;;
60098;SDS011;62818;49.394;8.686;2023-08-24T04:01:56;3.30;;;1.80;;
60098;SDS011;62818;49.394;8.686;2023-08-24T04:03:01;6.10;;;1.67;;
60098;SDS011;62818;49.394;8.686;2023-08-24T04:04:02;6.32;;;1.90;;
60098;SDS011;62818;49.394;8.686;2023-08-24T04:05:03;4.37;;;1.30;;
60098;SDS011;62818;49.394;8.686;2023-08-24T04:06:03;3.65;;;1.27;;
60098;SDS011;62818;49.394;8.686;2023-08-24T04:07:05;3.40;;;1.75;;
60098;SDS011;62818;49.394;8.686;2023-08-24T04:08:06;2.63;;;1.30;;
60098;SDS011;62818;49.394;8.686;2023-08-24T04:09:07;3.58;;;1.55;;
60098;SDS011;62818;49.394;8.686;2023-08-24T04:10:09;6.10;;;1.77;;
60098;SDS011;62818;49.394;8.686;2023-08-24T04:11:10;3.83;;;1.60;;
60098;SDS011;62818;49.394;8.686;2023-08-24T04:12:10;3.93;;;1.30;;
60098;SDS011;62818;49.394;8.686;2023-08-24T04:13:11;4.43;;;1.60;;
60098;SDS011;62818;49.394;8.686;2023-08-24T04:14:12;4.53;;;1.47;;
60098;SDS011;62818;49.394;8.686;2023-08-24T04:15:13;3.65;;;1.67;;
60098;SDS011;62818;49.394;8.686;2023-08-24T04:16:14;2.70;;;1.30;;
60098;SDS011;62818;49.394;8.686;2023-08-24T04:17:15;3.07;;;1.50;;
60098;SDS011;62818;49.394;8.686;2023-08-24T04:18:15;4.23;;;1.40;;
60098;SDS011;62818;49.394;8.686;2023-08-24T04:19:16;2.80;;;1.60;;
60098;SDS011;62818;49.394;8.686;2023-08-24T04:20:16;6.88;;;1.67;;
60098;SDS011;62818;49.394;8.686;2023-08-24T04:21:17;4.13;;;1.27;;
60098;SDS011;62818;49.394;8.686;2023-08-24T04:22:17;5.67;;;1.37;;
60098;SDS011;62818;49.394;8.686;2023-08-24T04:23:22;2.53;;;1.48;;
60098;SDS011;62818;49.394;8.686;2023-08-24T04:24:25;3.92;;;1.25;;
60098;SDS011;62818;49.394;8.686;2023-08-24T04:25:26;3.10;;;1.23;;
60098;SDS011;62818;49.394;8.686;2023-08-24T04:26:26;4.73;;;1.40;;
60098;SDS011;62818;49.394;8.686;2023-08-24T04:27:27;5.33;;;1.60;;
60098;SDS011;62818;49.394;8.686;2023-08-24T04:28:28;5.25;;;1.77;;
60098;SDS011;62818;49.394;8.686;2023-08-24T04:29:28;6.93;;;1.83;;
60098;SDS011;62818;49.394;8.686;2023-08-24T04:30:28;4.10;;;1.57;;
60098;SDS011;62818;49.394;8.686;2023-08-24T04:31:29;5.93;;;1.50;;
60098;SDS011;62818;49.394;8.686;2023-08-24T04:32:31;3.13;;;1.33;;
60098;SDS011;62818;49.394;8.686;2023-08-24T04:33:32;5.88;;;1.80;;
60098;SDS011;62818;49.394;8.686;2023-08-24T04:34:33;3.63;;;1.40;;
60098;SDS011;62818;49.394;8.686;2023-08-24T04:35:33;5.37;;;1.50;;
60098;SDS011;62818;49.394;8.686;2023-08-24T04:36:35;3.90;;;1.52;;
60098;SDS011;62818;49.394;8.686;2023-08-24T04:37:35;2.77;;;1.20;;
60098;SDS011;62818;49.394;8.686;2023-08-24T04:38:37;2.67;;;1.33;;
60098;SDS011;62818;49.394;8.686;2023-08-24T04:39:37;3.83;;;1.40;;
60098;SDS011;62818;49.394;8.686;2023-08-24T04:40:54;4.60;;;1.53;;
60098;SDS011;62818;49.394;8.686;2023-08-24T04:41:55;4.47;;;1.50;;
60098;SDS011;62818;49.394;8.686;2023-08-24T04:42:56;3.63;;;1.30;;
60098;SDS011;62818;49.394;8.686;2023-08-24T04:43:56;3.07;;;1.67;;
60098;SDS011;62818;49.394;8.686;2023-08-24T04:44:58;2.00;;;1.48;;
60098;SDS011;62818;49.394;8.686;2023-08-24T04:45:58;5.47;;;1.60;;
60098;SDS011;62818;49.394;8.686;2023-08-24T04:46:59;4.20;;;1.80;;
60098;SDS011;62818;49.394;8.686;2023-08-24T04:47:59;2.20;;;1.60;;
60098;SDS011;62818;49.394;8.686;2023-08-24T04:49:01;3.17;;;1.80;;
60098;SDS011;62818;49.394;8.686;2023-08-24T04:50:01;5.33;;;2.00;;
60098;SDS011;62818;49.394;8.686;2023-08-24T04:51:02;5.67;;;1.80;;
60098;SDS011;62818;49.394;8.686;2023-08-24T04:52:02;2.37;;;1.60;;
60098;SDS011;62818;49.394;8.686;2023-08-24T04:53:04;4.45;;;1.77;;
60098;SDS011;62818;49.394;8.686;2023-08-24T04:54:06;3.28;;;1.88;;
60098;SDS011;62818;49.394;8.686;2023-08-24T04:55:06;2.87;;;1.80;;
60098;SDS011;62818;49.394;8.686;2023-08-24T04:56:08;4.72;;;1.55;;
60098;SDS011;62818;49.394;8.686;2023-08-24T04:57:09;4.80;;;1.30;;
60098;SDS011;62818;49.394;8.686;2023-08-24T04:58:09;3.47;;;1.80;;
60098;SDS011;62818;49.394;8.686;2023-08-24T04:59:11;4.25;;;2.17;;
60098;SDS011;62818;49.394;8.686;2023-08-24T05:00:12;4.47;;;1.75;;
60098;SDS011;62818;49.394;8.686;2023-08-24T05:01:16;3.00;;;1.80;;
60098;SDS011;62818;49.394;8.686;2023-08-24T05:02:16;4.90;;;1.90;;
60098;SDS011;62818;49.394;8.686;2023-08-24T05:03:17;4.43;;;1.77;;
60098;SDS011;62818;49.394;8.686;2023-08-24T05:04:17;6.83;;;1.87;;
60098;SDS011;62818;49.394;8.686;2023-08-24T05:05:17;3.77;;;2.00;;
60098;SDS011;62818;49.394;8.686;2023-08-24T05:06:18;3.10;;;2.00;;
60098;SDS011;62818;49.394;8.686;2023-08-24T05:07:20;4.45;;;1.80;;
60098;SDS011;62818;49.394;8.686;2023-08-24T05:08:20;3.47;;;2.00;;
60098;SDS011;62818;49.394;8.686;2023-08-24T05:09:21;5.23;;;1.90;;
60098;SDS011;62818;49.394;8.686;2023-08-24T05:10:22;7.15;;;2.38;;
60098;SDS011;62818;49.394;8.686;2023-08-24T05:11:24;7.95;;;1.67;;
60098;SDS011;62818;49.394;8.686;2023-08-24T05:12:29;4.10;;;1.95;;
60098;SDS011;62818;49.394;8.686;2023-08-24T05:13:29;5.10;;;1.70;;
60098;SDS011;62818;49.394;8.686;2023-08-24T05:14:31;2.77;;;1.87;;
60098;SDS011;62818;49.394;8.686;2023-08-24T05:15:32;5.45;;;2.00;;
60098;SDS011;62818;49.394;8.686;2023-08-24T05:16:32;5.87;;;1.80;;
60098;SDS011;62818;49.394;8.686;2023-08-24T05:17:33;3.20;;;1.80;;
60098;SDS011;62818;49.394;8.686;2023-08-24T05:18:34;9.57;;;1.90;;
60098;SDS011;62818;49.394;8.686;2023-08-24T05:19:37;5.03;;;1.77;;
60098;SDS011;62818;49.394;8.686;2023-08-24T05:20:38;5.10;;;1.87;;
60098;SDS011;62818;49.394;8.686;2023-08-24T05:21:38;2.87;;;1.60;;
60098;SDS011;62818;49.394;8.686;2023-08-24T05:22:39;3.57;;;1.77;;
60098;SDS011;62818;49.394;8.686;2023-08-24T05:23:40;7.40;;;1.90;;
60098;SDS011;62818;49.394;8.686;2023-08-24T05:24:40;5.37;;;1.90;;
60098;SDS011;62818;49.394;8.686;2023-08-24T05:25:41;3.80;;;2.10;;
60098;SDS011;62818;49.394;8.686;2023-08-24T05:26:41;5.63;;;1.80;;
60098;SDS011;62818;49.394;8.686;2023-08-24T05:27:42;2.83;;;1.73;;
60098;SDS011;62818;49.394;8.686;2023-08-24T05:28:42;4.05;;;1.90;;
60098;SDS011;62818;49.394;8.686;2023-08-24T05:29:43;3.33;;;2.07;;
60098;SDS011;62818;49.394;8.686;2023-08-24T05:30:43;4.37;;;1.60;;
60098;SDS011;62818;49.394;8.686;2023-08-24T05:31:44;7.07;;;1.80;;
60098;SDS011;62818;49.394;8.686;2023-08-24T05:32:44;4.10;;;2.00;;
60098;SDS011;62818;49.394;8.686;2023-08-24T05:33:45;3.70;;;2.03;;
60098;SDS011;62818;49.394;8.686;2023-08-24T05:34:45;4.03;;;1.93;;
60098;SDS011;62818;49.394;8.686;2023-08-24T05:35:46;6.10;;;2.40;;
60098;SDS011;62818;49.394;8.686;2023-08-24T05:36:50;3.85;;;1.90;;
60098;SDS011;62818;49.394;8.686;2023-08-24T05:37:51;4.57;;;2.23;;
60098;SDS011;62818;49.394;8.686;2023-08-24T05:38:51;2.63;;;2.03;;
60098;SDS011;62818;49.394;8.686;2023-08-24T05:39:55;4.82;;;2.00;;
60098;SDS011;62818;49.394;8.686;2023-08-24T05:40:56;5.37;;;1.80;;
60098;SDS011;62818;49.394;8.686;2023-08-24T05:41:56;6.30;;;1.70;;
60098;SDS011;62818;49.394;8.686;2023-08-24T05:42:57;4.00;;;1.97;;
60098;SDS011;62818;49.394;8.686;2023-08-24T05:43:57;7.67;;;1.93;;
60098;SDS011;62818;49.394;8.686;2023-08-24T05:44:58;8.07;;;2.00;;
60098;SDS011;62818;49.394;8.686;2023-08-24T05:45:58;3.77;;;1.87;;
60098;SDS011;62818;49.394;8.686;2023-08-24T05:46:59;6.20;;;2.00;;
60098;SDS011;62818;49.394;8.686;2023-08-24T05:47:59;7.43;;;1.80;;
60098;SDS011;62818;49.394;8.686;2023-08-24T05:49:00;3.90;;;1.60;;
60098;SDS011;62818;49.394;8.686;2023-08-24T05:50:00;5.43;;;1.70;;
60098;SDS011;62818;49.394;8.686;2023-08-24T05:51:01;10.93;;;2.27;;
60098;SDS011;62818;49.394;8.686;2023-08-24T05:52:02;6.97;;;2.50;;
60098;SDS011;62818;49.394;8.686;2023-08-24T05:53:03;9.65;;;2.58;;
60098;SDS011;62818;49.394;8.686;2023-08-24T05:54:03;9.10;;;2.63;;
60098;SDS011;62818;49.394;8.686;2023-08-24T05:55:04;7.47;;;3.00;;
60098;SDS011;62818;49.394;8.686;2023-08-24T05:56:05;4.72;;;2.70;;
60098;SDS011;62818;49.394;8.686;2023-08-24T05:57:06;8.98;;;3.80;;
60098;SDS011;62818;49.394;8.686;2023-08-24T05:58:07;17.07;;;4.27;;
60098;SDS011;62818;49.394;8.686;2023-08-24T05:59:08;7.15;;;3.60;;
60098;SDS011;62818;49.394;8.686;2023-08-24T06:00:09;10.03;;;4.10;;
60098;SDS011;62818;49.394;8.686;2023-08-24T06:02:11;11.90;;;4.53;;
60098;SDS011;62818;49.394;8.686;2023-08-24T06:03:11;10.50;;;3.83;;
60098;SDS011;62818;49.394;8.686;2023-08-24T06:04:12;12.52;;;4.18;;
60098;SDS011;62818;49.394;8.686;2023-08-24T06:05:13;8.63;;;4.67;;
60098;SDS011;62818;49.394;8.686;2023-08-24T06:06:14;11.53;;;4.17;;
60098;SDS011;62818;49.394;8.686;2023-08-24T06:07:14;9.33;;;3.87;;
60098;SDS011;62818;49.394;8.686;2023-08-24T06:08:15;11.88;;;3.83;;
60098;SDS011;62818;49.394;8.686;2023-08-24T06:09:16;9.90;;;3.70;;
60098;SDS011;62818;49.394;8.686;2023-08-24T06:10:17;5.83;;;3.53;;
60098;SDS011;62818;49.394;8.686;2023-08-24T06:11:17;11.90;;;3.33;;
60098;SDS011;62818;49.394;8.686;2023-08-24T06:12:18;13.15;;;3.90;;
60098;SDS011;62818;49.394;8.686;2023-08-24T06:13:19;9.10;;;3.67;;
60098;SDS011;62818;49.394;8.686;2023-08-24T06:14:19;5.93;;;3.10;;
60098;SDS011;62818;49.394;8.686;2023-08-24T06:15:19;9.73;;;3.47;;
60098;SDS011;62818;49.394;8.686;2023-08-24T06:16:23;11.15;;;3.63;;
60098;SDS011;62818;49.394;8.686;2023-08-24T06:17:24;8.70;;;4.13;;
60098;SDS011;62818;49.394;8.686;2023-08-24T06:18:24;9.67;;;3.97;;
60098;SDS011;62818;49.394;8.686;2023-08-24T06:19:25;6.60;;;3.57;;
60098;SDS011;62818;49.394;8.686;2023-08-24T06:20:25;7.90;;;3.67;;
60098;SDS011;62818;49.394;8.686;2023-08-24T06:21:26;10.40;;;4.13;;
60098;SDS011;62818;49.394;8.686;2023-08-24T06:22:27;10.00;;;3.55;;